AirSardinia Virtual Manager

AirSardinia Virtual La prima compagnia sarda di volo simulato




 METAR AND TAF INFORMATION
METAR FOR LIME
ADDS - METARS form results

(1300 UTC 18 August 2019)
Data provider http://aviationweather.gov/metar/data/
 
METAR text: LIME 181250Z VRB03KT 9999 FEW040 29/18 Q1016 NOSIG
Conditions at: LIME (BERGAMO/ORIO SER, IT) observed 1250 UTC 18 August 2019
Temperature: 29.0°C (84°F)
Dewpoint: 18.0°C (64°F) [RH = 52%]
Pressure (altimeter): 30.00 inches Hg (1016.0 mb)
Winds: variable direction winds at 3 MPH (3 knots; 1.5 m/s)
Visibility: 6 or more miles (10+ km)
Ceiling: at least 12,000 feet AGL
Clouds: few clouds at 4000 feet AGL
Weather: no significant weather observed at this time

METAR text: LIME 181220Z VRB03KT 9999 FEW040 28/16 Q1016 NOSIG
Conditions at: LIME (BERGAMO/ORIO SER, IT) observed 1220 UTC 18 August 2019
Temperature: 28.0°C (82°F)
Dewpoint: 16.0°C (61°F) [RH = 48%]
Pressure (altimeter): 30.00 inches Hg (1016.0 mb)
Winds: variable direction winds at 3 MPH (3 knots; 1.5 m/s)
Visibility: 6 or more miles (10+ km)
Ceiling: at least 12,000 feet AGL
Clouds: few clouds at 4000 feet AGL
Weather: no significant weather observed at this time

Forecast for: LIME (BERGAMO/ORIO SER, IT)
Text: TAF LIME 181100Z 1812/1912 VRB05KT CAVOK
Forecast period: 1200 UTC 18 August 2019 to 1200 UTC 19 August 2019
Forecast type: FROM: standard forecast or significant change
Winds: variable direction winds at 6 MPH (5 knots; 2.6 m/s)
Visibility: 6 or more miles 10+ km)
Ceiling: unknown
Clouds: missing
Weather: NSW  (no significant weather)

 AIRPORT MAP

 RUNWAY INFORMATION
Runway 10 Runway length 9636 ft Runway width 148 ft
Runway elevation 779 ft Runway displaced threshold 312 ft Runway heading 105
Runway 28 Runway length 9636 ft Runway width 148 ft
Runway elevation 754 ft Runway displaced threshold 427 ft Runway heading 285
Runway 12 Runway length 2552 ft Runway width 59 ft
Runway elevation 782 ft Runway displaced threshold 210 ft Runway heading 121
Runway 30 Runway length 2552 ft Runway width 59 ft
Runway elevation 782 ft Runway displaced threshold 328 ft Runway heading 301

 AIRPORT FREQUENCIES
Type APP Name MILANO APP Frequency 126.75 MHz
Type ATIS Name ATIS Frequency 112.6 MHz
Type GND Name ORIO GND Frequency 120.5 MHz
Type TWR Name ORIO TWR Frequency 126.5 MHz

 AIRPORT NEAR NAVIGATION AIDS
Type VOR-DME Name Orio Al Serio Frequency 112.6 MHz
Type NDB Name Orio Al Serio Frequency 377 kHz